Trout Creek, Canada
Current Conditions -  °F | °C
As of 1:09 AM on Wednesday 26 Nov 2014 (Local Time) from CYYB Reporting Station
Broken Clouds Broken Clouds  
Wind Chill: 11°   Ceiling: 2000
Heat Index: 18°   Visibility: 9mi
Dew Point: 16°   Wind: 5mph
Humidity: 93%   Direction: 280°W
Pressure: 30.13"   Gusts: NA
Location:  45.98°N, 79.37°W
Report Text: CYYB 260609Z AUTO 28004KT 9SM SCT013 BKN020 M08/M09 A3013 RMK SLP224
Loading
Personal Weather Stations






























Interactive Weather Map New forecast layout! Learn more

10-Day Weather Forecast

Advertisements
Track Severe Weather on mobile